Time;durP1;ratioP1;P1;durP2;ratioP2;P2;SDS_P1;SDS_P2;PMS_P1;PMS_P2;Temp;Humidity;BMP_temperature;BMP_pressure;BME280_temperature;BME280_humidity;BME280_pressure;Samples;Min_cycle;Max_cycle;Signal;HPM_P1;HPM_P2
2023/07/10 00:01:04;;;;;;;0.30;0.30;;;27.40;63.10;;;28.24;46.18;95353.78;5096765;28;20261;-41
2023/07/10 00:03:32;;;;;;;0.30;0.30;;;27.40;63.00;;;28.23;46.09;95352.16;5096508;28;20666;-42
2023/07/10 00:06:00;;;;;;;0.25;0.25;;;27.40;63.10;;;28.23;46.25;95354.88;5096492;28;20303;-42
2023/07/10 00:08:28;;;;;;;0.32;0.32;;;27.40;64.20;;;28.22;46.13;95358.69;5096518;28;20661;-48
2023/07/10 00:10:55;;;;;;;0.30;0.30;;;27.40;63.20;;;28.21;46.09;95358.94;5096274;28;20750;-42
2023/07/10 00:13:23;;;;;;;0.30;0.30;;;27.40;63.30;;;28.20;46.20;95354.69;5095526;28;20266;-42
2023/07/10 00:15:52;;;;;;;0.30;0.30;;;27.40;63.30;;;28.18;46.77;95360.34;5095482;28;20233;-45
2023/07/10 00:18:22;;;;;;;0.22;0.22;;;27.40;63.30;;;28.18;46.85;95346.06;5096317;28;20243;-45
2023/07/10 00:20:50;;;;;;;0.30;0.30;;;27.40;63.50;;;28.16;46.39;95359.84;5095444;28;20603;-45
2023/07/10 00:23:18;;;;;;;0.40;0.40;;;27.40;63.40;;;28.16;46.56;95353.63;5096112;28;20247;-49
2023/07/10 00:25:45;;;;;;;0.40;0.40;;;27.40;63.50;;;28.15;46.79;95358.25;5095871;28;20200;-47
2023/07/10 00:28:20;;;;;;;0.30;0.30;;;27.40;63.50;;;28.14;46.66;95363.91;5095529;28;20303;-45
2023/07/10 00:30:49;;;;;;;0.30;0.30;;;27.40;63.70;;;28.13;46.69;95359.63;5095496;28;20596;-49
2023/07/10 00:33:19;;;;;;;0.30;0.30;;;27.40;63.60;;;28.10;46.70;95353.72;5095009;28;20541;-48
2023/07/10 00:35:47;;;;;;;0.25;0.25;;;27.40;63.60;;;28.10;47.07;95355.63;5096241;28;20198;-46
2023/07/10 00:38:27;;;;;;;0.30;0.30;;;27.30;63.60;;;28.06;46.79;95352.72;5095819;28;20541;-49
2023/07/10 00:40:57;;;;;;;0.30;0.30;;;27.30;63.80;;;28.06;47.47;95355.41;5094956;28;20204;-47
2023/07/10 00:43:42;;;;;;;0.40;0.40;;;27.30;63.70;;;28.04;47.41;95354.88;5111767;28;20216;-46
2023/07/10 00:46:37;;;;;;;0.30;0.30;;;27.30;63.80;;;28.00;46.72;95353.84;5095264;28;20207;-46
2023/07/10 00:49:41;;;;;;;0.30;0.30;;;27.30;63.80;;;27.98;47.25;95356.03;5093064;28;20208;-44
2023/07/10 00:52:25;;;;;;;0.30;0.30;;;27.20;63.70;;;27.95;46.90;95360.13;5094829;28;20188;-44
2023/07/10 00:54:57;;;;;;;0.30;0.30;;;27.20;63.80;;;27.95;47.41;95354.72;5094736;28;20201;-44
2023/07/10 00:57:37;;;;;;;0.22;0.22;;;27.20;63.70;;;27.95;46.99;95359.31;5094777;28;20172;-44
2023/07/10 01:00:23;;;;;;;0.30;0.30;;;27.20;63.80;;;27.93;47.39;95353.44;5095777;28;20187;-44
2023/07/10 01:02:51;;;;;;;0.30;0.30;;;27.20;63.80;;;27.91;47.21;95353.69;5094621;28;20259;-45
2023/07/10 01:05:19;;;;;;;0.30;0.30;;;27.20;63.80;;;27.91;47.09;95347.50;5094565;28;20262;-44
2023/07/10 01:07:56;;;;;;;0.30;0.30;;;27.10;63.80;;;27.89;47.59;95347.00;5077783;28;20520;-44
2023/07/10 01:10:23;;;;;;;0.30;0.30;;;27.10;63.90;;;27.89;47.49;95347.00;5095206;28;20218;-44
2023/07/10 01:12:51;;;;;;;0.30;0.30;;;27.10;63.80;;;27.88;47.59;95343.50;5094348;28;20192;-44
2023/07/10 01:15:19;;;;;;;0.30;0.30;;;27.10;63.90;;;27.87;47.58;95338.38;5094508;28;20219;-44
2023/07/10 01:17:47;;;;;;;0.30;0.30;;;27.10;63.90;;;27.87;47.33;95335.69;5095265;28;20222;-44
2023/07/10 01:20:46;;;;;;;0.30;0.30;;;27.10;64.00;;;27.82;47.69;95333.91;5094812;28;20195;-42
2023/07/10 01:23:15;;;;;;;0.30;0.30;;;27.10;64.00;;;27.82;47.23;95344.69;5111200;28;20258;-41
2023/07/10 01:25:57;;;;;;;0.35;0.35;;;27.10;64.00;;;27.78;47.90;95333.69;5094582;28;20193;-41
2023/07/10 01:28:25;;;;;;;0.30;0.30;;;27.00;64.20;;;27.78;47.79;95339.06;5094201;28;20250;-44
2023/07/10 01:30:56;;;;;;;0.30;0.30;;;27.00;64.10;;;27.78;47.66;95332.84;5111162;28;20224;-41
2023/07/10 01:33:33;;;;;;;0.30;0.30;;;27.10;64.10;;;27.77;47.92;95331.25;5095170;28;20184;-42
2023/07/10 01:36:02;;;;;;;0.30;0.30;;;27.00;65.20;;;27.75;47.45;95328.84;5095169;28;20188;-41
2023/07/10 01:38:46;;;;;;;0.30;0.30;;;27.00;64.30;;;27.73;47.39;95327.53;5094292;28;20227;-42
2023/07/10 01:41:39;;;;;;;0.30;0.30;;;27.00;64.30;;;27.72;48.11;95328.63;5095359;28;20619;-44
2023/07/10 01:44:28;;;;;;;0.30;0.30;;;27.00;64.50;;;27.69;48.13;95330.03;5094160;28;20200;-41
2023/07/10 01:46:58;;;;;;;0.30;0.30;;;27.00;64.40;;;27.68;48.22;95323.03;5110906;28;20205;-42
2023/07/10 01:49:38;;;;;;;0.20;0.20;;;27.00;64.40;;;27.67;47.85;95323.31;5095556;28;20612;-42
2023/07/10 01:52:09;;;;;;;0.30;0.30;;;27.00;64.60;;;27.67;48.29;95331.41;5095530;28;20469;-41
2023/07/10 01:54:38;;;;;;;0.30;0.30;;;27.00;65.30;;;27.67;48.29;95328.72;5094981;28;20196;-42
2023/07/10 01:57:11;;;;;;;0.30;0.30;;;27.00;64.40;;;27.66;48.00;95327.91;5094918;28;20216;-47
2023/07/10 01:59:38;;;;;;;0.30;0.30;;;26.90;64.50;;;27.64;48.05;95324.72;5095139;28;20200;-42
2023/07/10 02:02:07;;;;;;;0.32;0.32;;;26.90;64.40;;;27.64;47.71;95324.72;5110836;28;20609;-41
2023/07/10 02:04:34;;;;;;;0.30;0.30;;;26.90;64.50;;;27.61;47.83;95319.88;5093902;28;20564;-41
2023/07/10 02:07:02;;;;;;;0.30;0.30;;;26.90;64.40;;;27.60;48.13;95319.09;5110651;28;20198;-43
2023/07/10 02:09:31;;;;;;;0.30;0.30;;;26.90;64.40;;;27.59;47.71;95322.09;5095048;28;20189;-42
2023/07/10 02:11:59;;;;;;;0.22;0.22;;;26.90;64.50;;;27.58;48.42;95321.28;5110772;28;20227;-42
2023/07/10 02:14:26;;;;;;;0.30;0.30;;;26.90;64.50;;;27.57;48.12;95316.19;5110800;28;20231;-43
2023/07/10 02:16:53;;;;;;;0.30;0.30;;;26.80;64.50;;;27.55;48.24;95323.75;5094577;28;20227;-42
2023/07/10 02:19:21;;;;;;;0.30;0.30;;;26.90;64.60;;;27.55;48.05;95324.56;5093754;28;20559;-41
2023/07/10 02:21:48;;;;;;;0.30;0.30;;;26.80;64.60;;;27.53;48.07;95315.97;5111217;28;20291;-42
2023/07/10 02:24:16;;;;;;;0.32;0.32;;;26.80;64.50;;;27.52;47.93;95314.34;5114501;28;20665;-42
2023/07/10 02:26:43;;;;;;;0.30;0.30;;;26.80;64.60;;;27.51;48.53;95311.94;5098165;28;20260;-45
2023/07/10 02:29:10;;;;;;;0.30;0.30;;;26.80;64.60;;;27.50;48.14;95313.03;5098455;28;20278;-45
2023/07/10 02:31:37;;;;;;;0.30;0.30;;;26.80;64.70;;;27.48;48.38;95316.03;5098882;28;20191;-45
2023/07/10 02:34:05;;;;;;;0.30;0.30;;;26.80;64.70;;;27.46;48.03;95310.13;5099421;28;20200;-44
2023/07/10 02:36:33;;;;;;;0.30;0.30;;;26.80;64.70;;;27.46;48.23;95302.03;5114302;28;20196;-45
2023/07/10 02:39:01;;;;;;;0.35;0.35;;;26.70;64.70;;;27.44;48.21;95304.22;5098139;28;20223;-44
2023/07/10 02:41:28;;;;;;;0.30;0.30;;;26.80;64.70;;;27.42;48.77;95301.81;5114258;28;20554;-44
2023/07/10 02:43:55;;;;;;;0.30;0.30;;;26.70;64.80;;;27.40;48.45;95300.47;5114149;28;20324;-41
2023/07/10 02:46:23;;;;;;;0.30;0.30;;;26.70;64.80;;;27.39;48.35;95299.69;5098151;28;20569;-41
2023/07/10 02:48:50;;;;;;;0.30;0.30;;;26.70;64.90;;;27.38;48.46;95302.66;5096950;28;20592;-41
2023/07/10 02:51:17;;;;;;;0.32;0.32;;;26.70;64.90;;;27.38;48.70;95298.09;5098040;28;20195;-42
2023/07/10 02:53:44;;;;;;;0.40;0.40;;;26.70;65.00;;;27.37;48.89;95299.16;5114038;28;20203;-41
2023/07/10 02:56:11;;;;;;;0.30;0.30;;;26.70;64.90;;;27.36;48.46;95302.94;5097918;28;20278;-43
2023/07/10 02:58:39;;;;;;;0.30;0.30;;;26.70;65.00;;;27.36;48.71;95304.84;5097841;28;20251;-42
2023/07/10 03:01:06;;;;;;;0.30;0.30;;;26.70;65.00;;;27.35;48.81;95303.25;5096890;28;20584;-41
2023/07/10 03:03:33;;;;;;;0.30;0.30;;;26.70;65.00;;;27.32;48.88;95304.63;5097998;28;20629;-41
2023/07/10 03:06:02;;;;;;;0.30;0.30;;;26.60;64.90;;;27.31;48.83;95303.81;5098021;28;20555;-45
2023/07/10 03:08:30;;;;;;;0.30;0.30;;;26.60;65.10;;;27.28;48.92;95293.63;5096621;28;20243;-41
2023/07/10 03:11:09;;;;;;;0.30;0.30;;;26.60;65.10;;;27.27;48.49;95301.97;5097661;28;20267;-42
2023/07/10 03:13:37;;;;;;;0.30;0.30;;;26.60;65.20;;;27.26;49.08;95303.88;5097943;28;20179;-42
2023/07/10 03:16:11;;;;;;;0.30;0.30;;;26.60;65.10;;;27.24;49.16;95292.59;5097559;28;20201;-42
2023/07/10 03:18:39;;;;;;;0.30;0.30;;;26.60;65.20;;;27.25;48.93;95296.09;5096524;28;20211;-42
2023/07/10 03:21:07;;;;;;;0.30;0.30;;;26.60;66.10;;;27.24;49.13;95302.56;5097452;28;20228;-42
2023/07/10 03:23:35;;;;;;;0.30;0.30;;;26.60;65.20;;;27.23;49.16;95303.66;5096663;28;20204;-41
2023/07/10 03:26:02;;;;;;;0.30;0.30;;;26.60;65.30;;;27.22;49.05;95305.56;5097356;28;20235;-46
2023/07/10 03:28:36;;;;;;;0.25;0.25;;;26.60;65.30;;;27.21;49.37;95303.13;5097259;28;20270;-42
2023/07/10 03:31:04;;;;;;;0.30;0.30;;;26.50;65.40;;;27.19;48.83;95316.91;5096766;28;20236;-42
2023/07/10 03:33:31;;;;;;;0.30;0.30;;;26.60;65.40;;;27.18;49.62;95312.59;5096550;28;20532;-42
2023/07/10 03:36:08;;;;;;;0.30;0.30;;;26.50;65.30;;;27.17;49.22;95316.38;5097183;28;20223;-46
2023/07/10 03:38:35;;;;;;;0.30;0.30;;;26.50;65.50;;;27.15;49.20;95308.59;5097292;27;20184;-42
2023/07/10 03:41:03;;;;;;;0.30;0.30;;;26.50;65.30;;;27.14;49.24;95306.97;5097328;28;20198;-42
2023/07/10 03:43:30;;;;;;;0.30;0.30;;;26.50;65.40;;;27.13;49.65;95313.44;5097050;28;20284;-42
2023/07/10 03:45:57;;;;;;;0.30;0.30;;;26.50;65.40;;;27.13;49.04;95318.03;5096933;28;20221;-42
2023/07/10 03:48:25;;;;;;;0.30;0.30;;;26.50;65.40;;;27.12;49.08;95319.94;5096802;28;20191;-42
2023/07/10 03:50:52;;;;;;;0.30;0.30;;;26.50;65.50;;;27.12;49.42;95317.25;5096869;28;20282;-41
2023/07/10 03:53:19;;;;;;;0.40;0.40;;;26.50;65.50;;;27.11;49.60;95318.34;5097399;28;20250;-42
2023/07/10 03:55:51;;;;;;;0.30;0.30;;;26.50;65.60;;;27.09;49.18;95317.81;5097323;28;20254;-41
2023/07/10 03:58:28;;;;;;;0.30;0.30;;;26.50;65.60;;;27.09;49.17;95317.81;5096879;28;20293;-46
2023/07/10 04:00:58;;;;;;;0.30;0.30;;;26.50;65.70;;;27.08;49.72;95321.59;5096112;28;20224;-41
2023/07/10 04:03:33;;;;;;;0.30;0.30;;;26.50;65.60;;;27.05;49.71;95322.19;5096961;28;20204;-42
2023/07/10 04:06:02;;;;;;;0.30;0.30;;;26.50;66.70;;;27.06;49.68;95323.78;5096636;28;20207;-44
2023/07/10 04:08:37;;;;;;;0.22;0.22;;;26.50;66.70;;;27.06;49.61;95321.09;5096828;28;20248;-43
2023/07/10 04:11:11;;;;;;;0.30;0.30;;;26.50;66.00;;;27.07;49.66;95329.97;5096814;28;20183;-42
2023/07/10 04:13:38;;;;;;;0.30;0.30;;;26.40;65.90;;;27.07;49.45;95329.97;5095895;28;20248;-42
2023/07/10 04:16:20;;;;;;;0.30;0.30;;;26.40;65.90;;;27.07;49.77;95321.88;5096386;28;20188;-42
2023/07/10 04:18:51;;;;;;;0.30;0.30;;;26.40;66.00;;;27.06;50.13;95322.97;5096532;28;20519;-45
2023/07/10 04:21:21;;;;;;;0.30;0.30;;;26.40;66.10;;;27.07;49.83;95324.59;5097178;28;20470;-45
2023/07/10 04:23:48;;;;;;;0.30;0.30;;;26.50;66.20;;;27.06;49.82;95326.47;5096187;28;20205;-43
2023/07/10 04:26:22;;;;;;;0.30;0.30;;;26.50;66.20;;;27.06;50.01;95331.03;5095946;28;20240;-44
2023/07/10 04:28:54;;;;;;;0.30;0.30;;;26.50;66.30;;;27.06;50.11;95320.28;5096236;28;20258;-41
2023/07/10 04:31:23;;;;;;;0.30;0.30;;;26.50;66.30;;;27.06;50.55;95314.91;5095823;28;20595;-45
2023/07/10 04:33:52;;;;;;;0.30;0.30;;;26.50;66.30;;;27.07;50.48;95321.88;5096305;28;20192;-43
2023/07/10 04:36:20;;;;;;;0.30;0.30;;;26.50;66.30;;;27.06;50.34;95315.72;5096434;28;20211;-41
2023/07/10 04:38:48;;;;;;;0.20;0.20;;;26.50;66.30;;;27.07;49.99;95321.88;5095840;28;20218;-41
2023/07/10 04:41:20;;;;;;;0.30;0.30;;;26.50;66.40;;;27.05;50.30;95321.38;5095951;28;20221;-42
2023/07/10 04:43:47;;;;;;;0.20;0.20;;;26.50;66.50;;;27.06;50.76;95328.34;5096485;28;20178;-41
2023/07/10 04:46:17;;;;;;;0.30;0.30;;;26.50;66.50;;;27.06;50.24;95321.09;5094869;28;20299;-41
2023/07/10 04:48:44;;;;;;;0.30;0.30;;;26.50;66.50;;;27.06;50.84;95321.09;5095708;28;20264;-42
2023/07/10 04:51:14;;;;;;;0.30;0.30;;;26.50;66.50;;;27.07;50.37;95324.59;5095718;28;20191;-42
2023/07/10 04:53:41;;;;;;;0.25;0.25;;;26.50;66.60;;;27.09;50.88;95325.09;5095708;28;20625;-41
2023/07/10 04:56:12;;;;;;;0.30;0.30;;;26.50;66.60;;;27.07;50.40;95311.13;5095689;28;20282;-41
2023/07/10 04:58:57;;;;;;;0.30;0.30;;;26.50;66.80;;;27.06;50.83;95321.09;5095833;28;20674;-40
2023/07/10 05:01:32;;;;;;;0.20;0.20;;;26.50;66.80;;;27.05;51.06;95314.09;5095673;28;20220;-42
2023/07/10 05:04:00;;;;;;;0.20;0.20;;;26.50;66.90;;;27.07;50.67;95321.88;5096117;28;20266;-41
2023/07/10 05:06:28;;;;;;;0.35;0.35;;;26.50;66.70;;;27.08;50.44;95318.91;5095661;28;20224;-42
2023/07/10 05:09:00;;;;;;;0.30;0.30;;;26.50;66.70;;;27.09;50.55;95320.50;5095266;28;20247;-40
2023/07/10 05:11:29;;;;;;;0.30;0.30;;;26.50;66.70;;;27.09;50.45;95328.59;5096010;28;20250;-41
2023/07/10 05:13:57;;;;;;;0.30;0.30;;;26.50;66.70;;;27.09;50.98;95333.97;5095302;28;20211;-40
2023/07/10 05:16:24;;;;;;;0.20;0.20;;;26.50;66.70;;;27.11;51.04;95330.97;5095587;28;20199;-40
2023/07/10 05:18:52;;;;;;;0.28;0.28;;;26.50;66.60;;;27.11;50.78;95330.97;5095404;28;20554;-40
2023/07/10 05:21:19;;;;;;;0.25;0.25;;;26.50;67.10;;;27.12;50.76;95335.28;5095264;28;20194;-41
2023/07/10 05:23:46;;;;;;;0.30;0.30;;;26.50;66.60;;;27.11;50.43;95336.38;5095184;28;20218;-40
2023/07/10 05:26:16;;;;;;;0.30;0.30;;;26.50;66.70;;;27.13;50.93;95335.00;5095148;28;20311;-41
2023/07/10 05:28:44;;;;;;;0.30;0.30;;;26.60;66.80;;;27.13;50.54;95335.00;5095155;28;20563;-41
2023/07/10 05:31:12;;;;;;;0.20;0.20;;;26.60;66.70;;;27.16;51.01;95328.25;5095140;28;20196;-41
2023/07/10 05:33:41;;;;;;;0.38;0.38;;;26.50;66.70;;;27.16;50.85;95320.19;5095139;28;20282;-40
2023/07/10 05:36:13;;;;;;;0.30;0.30;;;26.60;66.80;;;27.16;50.82;95320.19;5095108;28;20295;-40
2023/07/10 05:38:40;;;;;;;0.30;0.30;;;26.60;67.40;;;27.17;50.61;95324.44;5095134;28;20515;-41
2023/07/10 05:41:08;;;;;;;0.30;0.30;;;26.60;66.80;;;27.20;50.85;95329.28;5095329;28;20295;-42
2023/07/10 05:43:36;;;;;;;0.30;0.30;;;26.60;66.90;;;27.20;50.72;95325.78;5095072;28;20225;-39
2023/07/10 05:46:03;;;;;;;0.30;0.30;;;26.60;66.80;;;27.20;50.44;95325.78;5094884;28;20222;-41
2023/07/10 05:48:31;;;;;;;0.25;0.25;;;26.60;66.80;;;27.21;50.61;95317.41;5094835;28;20192;-42
2023/07/10 05:50:59;;;;;;;0.30;0.30;;;26.60;66.80;;;27.22;50.85;95316.34;5094972;28;20235;-41
2023/07/10 05:53:26;;;;;;;0.35;0.35;;;26.60;66.90;;;27.23;50.71;95325.19;5095186;28;20186;-40
2023/07/10 05:55:56;;;;;;;0.20;0.20;;;26.60;66.80;;;27.23;50.47;95323.28;5094888;28;20200;-40
2023/07/10 05:58:27;;;;;;;0.20;0.20;;;26.60;66.70;;;27.24;50.36;95321.41;5097139;28;20216;-42
2023/07/10 06:00:58;;;;;;;0.20;0.20;;;26.60;66.70;;;27.24;50.64;95319.50;5099054;28;20189;-40
2023/07/10 06:03:26;;;;;;;0.20;0.20;;;26.60;66.70;;;27.26;51.00;95324.63;5099278;28;20197;-40
2023/07/10 06:05:56;;;;;;;0.30;0.30;;;26.70;66.70;;;27.23;50.36;95319.81;5098828;28;20655;-40
2023/07/10 06:08:25;;;;;;;0.30;0.30;;;26.60;66.50;;;27.26;50.33;95319.25;5098899;28;20545;-41
2023/07/10 06:10:52;;;;;;;0.30;0.30;;;26.60;66.40;;;27.28;50.77;95323.25;5098767;28;20526;-41
2023/07/10 06:13:20;;;;;;;0.30;0.30;;;26.70;66.50;;;27.28;50.25;95320.56;5099599;28;20326;-41
2023/07/10 06:15:51;;;;;;;0.30;0.30;;;26.70;66.50;;;27.28;50.09;95323.25;5098744;28;20192;-43
2023/07/10 06:18:19;;;;;;;0.30;0.30;;;26.60;66.50;;;27.30;50.55;95320.25;5081031;28;20188;-42
2023/07/10 06:20:58;;;;;;;0.30;0.30;;;26.70;66.40;;;27.32;50.17;95321.56;5098912;28;20192;-42
2023/07/10 06:23:28;;;;;;;0.30;0.30;;;26.70;66.40;;;27.32;50.08;95318.88;5098886;28;20174;-41
2023/07/10 06:25:56;;;;;;;0.30;0.30;;;26.70;66.40;;;27.33;50.27;95325.88;5098299;28;20305;-41
2023/07/10 06:28:23;;;;;;;0.30;0.30;;;26.70;66.30;;;27.34;50.05;95326.66;5098280;28;20623;-46
2023/07/10 06:31:07;;;;;;;0.28;0.28;;;26.70;66.30;;;27.34;50.32;95329.38;5098528;28;20195;-42
2023/07/10 06:33:35;;;;;;;0.30;0.30;;;26.70;66.30;;;27.37;50.54;95330.66;5098702;28;20180;-39
2023/07/10 06:36:04;;;;;;;0.30;0.30;;;26.70;66.20;;;27.38;49.84;95324.19;5098363;28;20282;-39
2023/07/10 06:38:33;;;;;;;0.30;0.30;;;26.70;66.10;;;27.38;50.45;95325.03;5098173;28;20204;-39
2023/07/10 06:41:00;;;;;;;0.20;0.20;;;26.70;66.10;;;27.40;49.59;95332.81;5098547;28;20195;-39
2023/07/10 06:43:28;;;;;;;0.30;0.30;;;26.80;65.90;;;27.41;49.98;95332.53;5098147;28;20245;-39
2023/07/10 06:45:56;;;;;;;0.30;0.30;;;26.80;65.90;;;27.42;49.62;95328.75;5098074;28;20219;-39
2023/07/10 06:48:24;;;;;;;0.30;0.30;;;26.80;65.90;;;27.44;49.73;95331.16;5098205;28;20229;-41
2023/07/10 06:50:56;;;;;;;0.30;0.30;;;26.70;65.60;;;27.44;49.20;95336.53;5098079;28;20192;-40
2023/07/10 06:53:24;;;;;;;0.30;0.30;;;26.80;65.50;;;27.45;49.69;95336.28;5098326;28;20612;-40
2023/07/10 06:55:54;;;;;;;0.30;0.30;;;26.80;65.50;;;27.47;49.21;95333.28;5097903;28;20608;-39
2023/07/10 06:58:22;;;;;;;0.30;0.30;;;26.80;65.50;;;27.48;49.22;95340.28;5097920;28;20536;-41
2023/07/10 07:00:49;;;;;;;0.30;0.30;;;26.80;65.40;;;27.49;49.18;95336.50;5097715;28;20287;-40
2023/07/10 07:03:16;;;;;;;0.30;0.30;;;26.80;65.30;;;27.51;49.15;95336.19;5097867;28;20253;-39
2023/07/10 07:05:44;;;;;;;0.30;0.30;;;26.80;65.30;;;27.52;49.32;95327.81;5097688;28;20307;-40
2023/07/10 07:08:13;;;;;;;0.30;0.30;;;26.90;65.30;;;27.55;49.06;95331.81;5097417;28;20192;-40
2023/07/10 07:10:43;;;;;;;0.30;0.30;;;26.90;65.30;;;27.55;48.98;95327.25;5097082;28;20193;-41
2023/07/10 07:13:11;;;;;;;0.30;0.30;;;26.90;65.20;;;27.56;48.76;95322.66;5097964;28;20184;-41
2023/07/10 07:15:39;;;;;;;0.30;0.30;;;26.90;65.20;;;27.58;49.09;95325.88;5097866;28;20199;-42
2023/07/10 07:18:06;;;;;;;0.30;0.30;;;26.90;65.10;;;27.60;49.23;95323.66;5097548;28;20206;-41
2023/07/10 07:20:34;;;;;;;0.30;0.30;;;26.90;65.20;;;27.61;48.72;95325.28;5097302;28;20597;-41
2023/07/10 07:23:01;;;;;;;0.30;0.30;;;26.90;65.00;;;27.63;48.50;95321.19;5097747;28;20253;-41
2023/07/10 07:25:29;;;;;;;0.30;0.30;;;26.90;65.00;;;27.65;48.34;95323.63;5097311;28;20653;-41
2023/07/10 07:28:03;;;;;;;0.30;0.30;;;27.00;65.00;;;27.66;48.85;95317.16;5097197;28;20233;-42
2023/07/10 07:30:31;;;;;;;0.30;0.30;;;27.00;65.00;;;27.67;48.79;95310.63;5097813;28;20651;-40
2023/07/10 07:33:00;;;;;;;0.28;0.28;;;27.00;65.10;;;27.69;49.21;95308.47;5097233;28;20198;-43
2023/07/10 07:35:28;;;;;;;0.30;0.30;;;27.00;64.80;;;27.72;48.81;95320.56;5097212;28;20269;-40
2023/07/10 07:37:55;;;;;;;0.35;0.35;;;27.00;64.80;;;27.73;48.28;95311.38;5097151;28;20205;-41
2023/07/10 07:40:22;;;;;;;0.30;0.30;;;27.00;64.70;;;27.75;48.67;95311.91;5097018;28;20189;-40
2023/07/10 07:42:49;;;;;;;0.20;0.20;;;27.00;64.80;;;27.77;47.89;95301.59;5097054;28;20652;-41
2023/07/10 07:45:16;;;;;;;0.30;0.30;;;27.10;64.60;;;27.78;48.26;95303.22;5097476;28;20224;-41
2023/07/10 07:47:43;;;;;;;0.30;0.30;;;27.10;64.40;;;27.80;47.81;95292.94;5096914;28;20196;-40
2023/07/10 07:50:11;;;;;;;0.30;0.30;;;27.10;64.50;;;27.82;47.75;95300.72;5096856;28;20213;-42
2023/07/10 07:52:38;;;;;;;0.30;0.30;;;27.10;65.30;;;27.84;48.45;95304.72;5097189;28;20198;-41
2023/07/10 07:55:06;;;;;;;0.30;0.30;;;27.10;64.60;;;27.84;47.85;95302.03;5096762;28;20183;-45
2023/07/10 07:57:33;;;;;;;0.30;0.30;;;27.10;64.50;;;27.87;47.64;95300.66;5096817;28;20420;-42
2023/07/10 08:00:01;;;;;;;0.30;0.30;;;27.20;64.40;;;27.90;47.84;95300.06;5096712;28;20288;-43
2023/07/10 08:02:38;;;;;;;0.30;0.30;;;27.20;64.30;;;27.90;47.60;95298.16;5096696;28;20572;-43
2023/07/10 08:05:05;;;;;;;0.25;0.25;;;27.20;64.30;;;27.93;47.53;95296.81;5096818;28;20248;-41
2023/07/10 08:07:50;;;;;;;0.30;0.30;;;27.20;64.00;;;27.95;47.48;95294.59;5096646;28;20244;-42
2023/07/10 08:10:17;;;;;;;0.20;0.20;;;27.20;63.90;;;27.98;47.65;95293.22;5096241;28;20192;-41
2023/07/10 08:12:44;;;;;;;0.30;0.30;;;27.20;64.00;;;27.99;47.75;95292.94;5096739;28;20329;-42
2023/07/10 08:15:11;;;;;;;0.30;0.30;;;27.30;64.00;;;28.01;47.53;95298.81;5096270;28;20208;-41
2023/07/10 08:17:38;;;;;;;0.30;0.30;;;27.30;63.90;;;28.02;47.51;95294.25;5096603;28;20287;-43
2023/07/10 08:20:07;;;;;;;0.40;0.40;;;27.30;63.80;;;28.04;47.45;95295.53;5096459;28;20245;-45
2023/07/10 08:22:34;;;;;;;0.30;0.30;;;27.30;63.80;;;28.07;47.45;95304.97;5096312;28;20202;-42
2023/07/10 08:25:03;;;;;;;0.30;0.30;;;27.30;63.90;;;28.08;47.65;95301.97;5096095;28;20244;-41
2023/07/10 08:27:30;;;;;;;0.20;0.20;;;27.30;63.80;;;28.09;47.15;95292.78;5096141;28;20252;-40
2023/07/10 08:29:57;;;;;;;0.20;0.20;;;27.40;63.70;;;28.11;46.89;95297.88;5096175;28;20629;-40
2023/07/10 08:32:24;;;;;;;0.20;0.20;;;27.40;63.60;;;28.13;46.81;95301.09;5096312;28;20187;-40
2023/07/10 08:34:51;;;;;;;0.20;0.20;;;27.40;63.60;;;28.14;46.49;95293.78;5096475;28;20198;-40
2023/07/10 08:37:19;;;;;;;0.30;0.30;;;27.40;63.50;;;28.16;46.50;95288.91;5096281;28;20211;-40
2023/07/10 08:39:47;;;;;;;0.30;0.30;;;27.40;63.50;;;28.17;46.67;95293.22;5095942;28;20284;-40
2023/07/10 08:42:22;;;;;;;0.20;0.20;;;27.40;63.30;;;28.18;46.32;95287.53;5096760;28;20281;-40
2023/07/10 08:44:53;;;;;;;0.20;0.20;;;27.40;63.10;;;28.19;46.61;95289.13;5094840;28;20197;-40
2023/07/10 08:47:33;;;;;;;0.30;0.30;;;27.40;63.00;;;28.21;46.02;95289.66;5095204;28;20211;-40
2023/07/10 08:50:12;;;;;;;0.20;0.20;;;27.40;62.90;;;28.22;46.75;95290.44;5096116;28;20183;-40
2023/07/10 08:52:51;;;;;;;0.20;0.20;;;27.50;62.90;;;28.21;46.12;95289.66;5095914;28;20269;-42
2023/07/10 08:55:45;;;;;;;0.25;0.25;;;27.50;63.20;;;28.24;46.03;95285.56;5094948;28;20228;-40
2023/07/10 08:58:21;;;;;;;0.25;0.25;;;27.50;62.80;;;28.25;46.24;95290.63;5092115;28;20298;-41
2023/07/10 09:00:53;;;;;;;0.30;0.30;;;27.50;62.60;;;28.26;45.84;95283.38;5095659;28;20207;-40
2023/07/10 09:03:36;;;;;;;0.30;0.30;;;27.50;63.70;;;28.30;46.20;95278.19;5078580;28;20279;-40
2023/07/10 09:06:28;;;;;;;0.30;0.30;;;27.50;62.50;;;28.28;46.22;95279.28;5095384;28;20256;-40
2023/07/10 09:08:56;;;;;;;0.30;0.30;;;27.50;62.40;;;28.32;46.01;95282.19;5095780;28;20222;-40
2023/07/10 09:11:25;;;;;;;0.28;0.28;;;27.50;62.70;;;28.34;45.65;95279.19;5094792;28;20641;-40
2023/07/10 09:14:03;;;;;;;0.28;0.28;;;27.60;62.70;;;28.36;45.83;95291.28;5094833;28;20636;-41
2023/07/10 09:16:31;;;;;;;0.30;0.30;;;27.60;62.70;;;28.37;45.68;95278.56;5094733;28;20213;-40
2023/07/10 09:19:12;;;;;;;0.30;0.30;;;27.60;62.50;;;28.38;45.48;95283.69;5095845;28;20210;-44
2023/07/10 09:21:41;;;;;;;0.30;0.30;;;27.60;62.50;;;28.40;46.04;95275.28;5095736;28;20199;-39
2023/07/10 09:24:26;;;;;;;0.28;0.28;;;27.60;62.60;;;28.40;45.10;95276.09;5094464;28;20198;-46
2023/07/10 09:26:53;;;;;;;0.20;0.20;;;27.60;62.30;;;28.45;45.71;95272.50;5094390;28;20235;-42
2023/07/10 09:29:33;;;;;;;0.30;0.30;;;27.60;62.30;;;28.46;45.30;95263.31;5095774;28;20194;-41
2023/07/10 09:32:14;;;;;;;0.32;0.32;;;27.70;62.00;;;28.47;44.87;95264.91;5094923;28;20194;-41
2023/07/10 09:35:03;;;;;;;0.30;0.30;;;27.60;61.90;;;28.47;45.41;95250.63;5095257;28;20189;-41
2023/07/10 09:37:35;;;;;;;0.30;0.30;;;27.70;62.10;;;28.50;44.71;95261.59;5095117;28;20196;-40
2023/07/10 09:40:45;;;;;;;0.30;0.30;;;27.70;61.90;;;28.50;44.93;95258.13;5095181;28;20189;-40
2023/07/10 09:43:25;;;;;;;0.38;0.38;;;27.70;62.10;;;28.51;44.52;95252.41;5095673;28;20607;-42
2023/07/10 09:45:58;;;;;;;0.30;0.30;;;27.70;61.70;;;28.55;44.98;95250.75;5094858;28;20267;-40
2023/07/10 09:48:36;;;;;;;0.30;0.30;;;27.70;61.70;;;28.56;44.94;95246.94;5095014;28;20632;-41
2023/07/10 09:51:08;;;;;;;0.20;0.20;;;27.70;61.50;;;28.59;44.71;95250.94;5095314;28;20530;-42
2023/07/10 09:53:45;;;;;;;0.30;0.30;;;27.80;62.50;;;28.62;44.08;95247.63;5094387;28;20577;-46
2023/07/10 09:56:35;;;;;;;0.20;0.20;;;27.80;61.30;;;28.63;44.75;95249.25;5094844;28;20182;-41
2023/07/10 09:59:33;;;;;;;0.30;0.30;;;27.80;61.50;;;28.64;44.13;95242.75;5095246;28;20185;-43
2023/07/10 10:02:21;;;;;;;0.40;0.40;;;27.80;61.40;;;28.66;44.37;95243.25;5095178;28;20274;-41
2023/07/10 10:05:01;;;;;;;0.30;0.30;;;27.80;61.30;;;28.70;44.50;95248.88;5095145;28;20180;-41
2023/07/10 10:07:43;;;;;;;0.30;0.30;;;27.90;61.30;;;28.72;44.40;95243.97;5094898;28;20215;-40
2023/07/10 10:10:24;;;;;;;0.28;0.28;;;27.90;61.10;;;28.75;44.04;95241.47;5095172;28;20225;-41
2023/07/10 10:13:15;;;;;;;0.30;0.30;;;27.90;61.00;;;28.78;44.15;95247.38;5095415;28;20673;-41
2023/07/10 10:16:03;;;;;;;0.30;0.30;;;28.00;61.10;;;28.79;44.10;95238.97;5094165;28;20268;-40
2023/07/10 10:18:54;;;;;;;0.32;0.32;;;28.00;61.00;;;28.83;44.11;95236.47;5095326;28;20264;-42
2023/07/10 10:21:22;;;;;;;0.30;0.30;;;28.00;61.10;;;28.85;44.17;95228.88;5094130;28;20622;-42
2023/07/10 10:24:04;;;;;;;0.30;0.30;;;28.00;61.00;;;28.87;43.39;95232.88;5094726;28;20638;-42
2023/07/10 10:26:55;;;;;;;0.30;0.30;;;28.00;60.70;;;28.90;43.33;95234.97;5094396;28;20331;-42
2023/07/10 10:29:46;;;;;;;0.30;0.30;;;28.10;60.80;;;28.92;43.61;95226.59;5094970;28;20186;-39
2023/07/10 10:32:55;;;;;;;0.25;0.25;;;28.10;60.60;;;28.93;43.29;95236.28;5095223;28;20607;-40
2023/07/10 10:36:05;;;;;;;0.20;0.20;;;28.10;60.60;;;28.96;43.47;95224.88;5094834;28;20198;-39
2023/07/10 10:39:10;;;;;;;0.30;0.30;;;28.10;60.60;;;29.00;43.45;95223.19;5095012;28;20191;-40
2023/07/10 10:41:52;;;;;;;0.30;0.30;;;28.20;60.70;;;29.04;43.01;95220.66;5094053;28;20609;-40